Time;durP1;ratioP1;P1;durP2;ratioP2;P2;SDS_P1;SDS_P2;PMS_P1;PMS_P2;Temp;Humidity;BMP_temperature;BMP_pressure;BME280_temperature;BME280_humidity;BME280_pressure;Samples;Min_cycle;Max_cycle;Signal;HPM_P1;HPM_P2
2022/03/06 00:02:05;;;;;;;23.17;16.90;;;-0.40;73.60;;;;;;5105003;28;20031;-73
2022/03/06 00:04:31;;;;;;;22.80;15.43;;;-0.30;73.70;;;;;;5062123;28;20047;-73
2022/03/06 00:06:57;;;;;;;24.00;16.05;;;-0.20;73.60;;;;;;5107177;28;20301;-73
2022/03/06 00:09:23;;;;;;;22.07;15.23;;;-0.10;73.60;;;;;;5058935;28;20044;-73
2022/03/06 00:11:50;;;;;;;22.20;15.98;;;-0.10;73.40;;;;;;5090989;28;20139;-73
2022/03/06 00:14:15;;;;;;;22.30;15.55;;;-0.10;73.60;;;;;;5061188;28;20036;-73
2022/03/06 00:16:42;;;;;;;24.13;16.03;;;0.00;73.50;;;;;;5095451;28;20054;-73
2022/03/06 00:19:08;;;;;;;22.45;16.23;;;0.00;73.50;;;;;;5093562;28;20506;-73
2022/03/06 00:21:39;;;;;;;22.60;15.13;;;0.10;73.30;;;;;;5073909;27;20063;-73
2022/03/06 00:24:05;;;;;;;22.17;15.02;;;0.10;73.40;;;;;;5123095;27;20377;-73
2022/03/06 00:26:31;;;;;;;18.60;14.07;;;0.10;73.20;;;;;;5089587;28;20040;-73
2022/03/06 00:28:57;;;;;;;23.53;15.37;;;0.10;73.40;;;;;;5087190;28;20042;-73
2022/03/06 00:31:23;;;;;;;19.13;14.63;;;0.20;73.30;;;;;;5107944;27;20318;-73
2022/03/06 00:33:49;;;;;;;18.93;13.23;;;0.20;73.10;;;;;;5083454;28;20032;-73
2022/03/06 00:36:15;;;;;;;19.73;13.15;;;0.30;73.10;;;;;;5089998;28;20374;-73
2022/03/06 00:38:41;;;;;;;19.42;13.38;;;0.40;72.50;;;;;;5092423;28;20119;-73
2022/03/06 00:41:07;;;;;;;15.97;12.30;;;0.40;72.30;;;;;;5112073;27;20122;-73
2022/03/06 00:43:33;;;;;;;18.13;12.93;;;0.50;72.00;;;;;;5079356;28;20058;-73
2022/03/06 00:45:59;;;;;;;16.93;12.70;;;0.50;71.80;;;;;;5107200;28;20034;-73
2022/03/06 00:48:24;;;;;;;19.50;12.80;;;0.60;71.60;;;;;;5106915;28;20350;-73
2022/03/06 00:50:50;;;;;;;17.40;12.80;;;0.70;71.40;;;;;;5085235;28;20134;-73
2022/03/06 00:53:16;;;;;;;17.77;12.53;;;0.70;71.10;;;;;;5074524;28;20035;-73
2022/03/06 00:55:42;;;;;;;18.52;12.65;;;0.80;71.20;;;;;;5075609;28;20036;-73
2022/03/06 00:58:09;;;;;;;16.13;12.50;;;0.90;70.50;;;;;;5067863;28;20043;-73
2022/03/06 01:00:40;;;;;;;19.23;13.15;;;0.90;70.40;;;;;;5072902;28;20046;-73
2022/03/06 01:03:08;;;;;;;20.30;12.63;;;1.00;70.60;;;;;;5089414;27;20036;-73
2022/03/06 01:05:34;;;;;;;20.23;13.63;;;1.00;70.60;;;;;;5092674;28;20039;-74
2022/03/06 01:08:01;;;;;;;21.77;12.70;;;1.00;70.50;;;;;;5075450;28;20570;-73
2022/03/06 01:10:27;;;;;;;16.42;12.27;;;1.00;70.50;;;;;;5107678;28;20522;-73
2022/03/06 01:12:53;;;;;;;18.08;13.40;;;1.00;70.70;;;;;;5124554;27;20285;-73
2022/03/06 01:15:19;;;;;;;16.63;13.30;;;1.00;70.50;;;;;;5106572;28;20096;-74
2022/03/06 01:17:44;;;;;;;17.23;13.63;;;1.00;70.70;;;;;;5064690;28;20048;-73
2022/03/06 01:20:11;;;;;;;18.37;12.93;;;0.90;70.70;;;;;;5070218;28;20035;-73
2022/03/06 01:22:36;;;;;;;18.80;13.95;;;0.90;70.70;;;;;;5070694;27;20050;-73
2022/03/06 01:25:04;;;;;;;19.07;12.57;;;0.80;71.00;;;;;;5096119;28;20550;-73
2022/03/06 01:27:31;;;;;;;22.48;13.13;;;0.80;71.00;;;;;;5101299;28;20411;-73
2022/03/06 01:29:56;;;;;;;17.85;12.63;;;0.80;70.80;;;;;;5074751;28;20511;-73
2022/03/06 01:32:22;;;;;;;21.10;13.70;;;0.80;70.90;;;;;;5107374;28;20044;-73
2022/03/06 01:34:48;;;;;;;19.73;13.48;;;0.90;70.90;;;;;;5089771;28;20153;-73
2022/03/06 01:37:14;;;;;;;20.03;13.93;;;0.90;70.80;;;;;;5088953;28;20118;-73
2022/03/06 01:39:40;;;;;;;17.37;12.57;;;0.90;70.80;;;;;;5091133;28;20046;-73
2022/03/06 01:42:05;;;;;;;17.87;12.87;;;0.90;70.90;;;;;;5093431;28;20035;-73
2022/03/06 01:44:31;;;;;;;17.77;13.23;;;0.90;70.90;;;;;;5075618;28;20168;-73
2022/03/06 01:46:57;;;;;;;17.73;12.10;;;0.90;70.80;;;;;;5083159;28;20043;-73
2022/03/06 01:49:23;;;;;;;18.30;12.43;;;1.00;70.70;;;;;;5072982;28;20131;-73
2022/03/06 01:51:49;;;;;;;20.40;11.80;;;1.00;70.50;;;;;;5069920;28;20518;-73
2022/03/06 01:54:15;;;;;;;14.73;11.53;;;1.00;70.50;;;;;;5068134;28;20115;-73
2022/03/06 01:56:41;;;;;;;15.67;11.37;;;1.00;70.30;;;;;;5102517;28;20297;-73
2022/03/06 01:59:07;;;;;;;15.98;12.05;;;1.10;70.40;;;;;;5069627;28;20750;-73
2022/03/06 02:01:33;;;;;;;17.90;11.90;;;1.10;70.30;;;;;;5084907;28;20058;-73
2022/03/06 02:03:59;;;;;;;13.90;10.47;;;1.10;70.40;;;;;;5101987;28;20483;-73
2022/03/06 02:06:26;;;;;;;16.43;11.37;;;1.10;70.30;;;;;;5085387;28;20053;-73
2022/03/06 02:08:52;;;;;;;17.90;11.55;;;1.10;70.20;;;;;;5052443;28;20733;-74
2022/03/06 02:11:18;;;;;;;15.37;11.33;;;1.20;69.90;;;;;;5086001;28;20127;-73
2022/03/06 02:13:44;;;;;;;17.52;11.38;;;1.20;69.80;;;;;;5119846;27;20117;-73
2022/03/06 02:16:10;;;;;;;15.73;10.65;;;1.20;69.60;;;;;;5119406;27;20036;-73
2022/03/06 02:18:36;;;;;;;16.45;10.98;;;1.30;69.60;;;;;;5085646;28;20098;-73
2022/03/06 02:21:13;;;;;;;17.17;10.43;;;1.30;69.50;;;;;;5103160;28;20552;-73
2022/03/06 02:23:39;;;;;;;13.43;9.77;;;1.30;69.60;;;;;;5069033;28;20552;-73
2022/03/06 02:26:06;;;;;;;15.45;10.73;;;1.30;69.60;;;;;;5067140;28;20094;-73
2022/03/06 02:28:32;;;;;;;15.02;10.93;;;1.30;69.70;;;;;;5081996;28;20672;-73
2022/03/06 02:30:59;;;;;;;16.58;10.52;;;1.30;69.80;;;;;;5067586;28;20053;-73
2022/03/06 02:33:25;;;;;;;16.58;10.05;;;1.30;69.80;;;;;;5069062;28;20334;-73
2022/03/06 02:35:51;;;;;;;15.07;11.00;;;1.20;69.80;;;;;;5101802;28;20097;-73
2022/03/06 02:38:16;;;;;;;16.37;9.67;;;1.30;69.80;;;;;;5051168;28;20079;-73
2022/03/06 02:40:43;;;;;;;14.57;9.37;;;1.20;69.90;;;;;;5066711;28;20040;-73
2022/03/06 02:43:10;;;;;;;14.82;10.15;;;1.20;70.00;;;;;;5061873;28;20093;-73
2022/03/06 02:45:39;;;;;;;16.50;10.68;;;1.20;70.00;;;;;;5118817;27;20054;-74
2022/03/06 02:48:05;;;;;;;17.73;10.20;;;1.20;70.00;;;;;;5117383;27;20040;-73
2022/03/06 02:50:33;;;;;;;13.48;9.90;;;1.20;70.30;;;;;;5056437;28;20710;-73
2022/03/06 02:53:00;;;;;;;15.20;10.15;;;1.30;70.10;;;;;;5065656;28;20087;-73
2022/03/06 02:55:27;;;;;;;13.63;8.88;;;1.20;70.20;;;;;;5064472;28;20130;-73
2022/03/06 02:57:53;;;;;;;11.98;8.70;;;1.20;70.20;;;;;;5043917;28;20127;-73
2022/03/06 03:00:20;;;;;;;14.02;8.80;;;1.20;70.20;;;;;;5064508;28;20048;-73
2022/03/06 03:02:47;;;;;;;15.38;8.90;;;1.20;70.30;;;;;;5048256;28;20067;-73
2022/03/06 03:05:14;;;;;;;12.63;9.18;;;1.20;70.30;;;;;;5031028;28;20048;-73
2022/03/06 03:07:41;;;;;;;12.50;8.88;;;1.20;70.20;;;;;;5048129;28;20047;-73
2022/03/06 03:10:09;;;;;;;11.52;7.95;;;1.20;70.30;;;;;;5047805;28;20137;-73
2022/03/06 03:12:35;;;;;;;13.95;7.75;;;1.30;70.40;;;;;;5048971;28;20040;-73
2022/03/06 03:15:01;;;;;;;12.40;7.93;;;1.20;70.50;;;;;;5064294;28;20481;-73
2022/03/06 03:17:27;;;;;;;13.43;7.40;;;1.30;70.30;;;;;;5048648;28;20048;-73
2022/03/06 03:19:52;;;;;;;11.60;7.57;;;1.30;70.00;;;;;;5047496;28;20066;-73
2022/03/06 03:22:18;;;;;;;10.77;6.47;;;1.30;70.20;;;;;;5056220;28;20047;-73
2022/03/06 03:24:44;;;;;;;13.10;7.67;;;1.30;70.10;;;;;;5052417;28;20056;-73
2022/03/06 03:27:09;;;;;;;10.07;6.67;;;1.30;70.00;;;;;;5014180;28;20048;-73
2022/03/06 03:29:35;;;;;;;9.33;6.03;;;1.30;70.00;;;;;;5040340;28;20471;-73
2022/03/06 03:32:01;;;;;;;10.47;6.10;;;1.30;69.90;;;;;;5063754;28;20071;-73
2022/03/06 03:34:26;;;;;;;10.17;6.90;;;1.30;69.70;;;;;;5047568;28;20134;-73
2022/03/06 03:36:52;;;;;;;11.47;6.07;;;1.30;69.80;;;;;;5047686;28;20528;-73
2022/03/06 03:39:18;;;;;;;10.82;6.03;;;1.20;69.90;;;;;;5050461;28;20044;-73
2022/03/06 03:41:44;;;;;;;10.83;6.27;;;1.30;70.00;;;;;;5031540;28;20571;-73
2022/03/06 03:44:09;;;;;;;9.87;5.97;;;1.20;70.20;;;;;;5033491;28;20047;-73
2022/03/06 03:46:35;;;;;;;12.80;6.40;;;1.20;70.40;;;;;;5032985;28;20036;-73
2022/03/06 03:49:01;;;;;;;15.50;6.87;;;1.30;70.60;;;;;;5053858;28;20397;-73
2022/03/06 03:51:27;;;;;;;8.97;6.57;;;1.30;70.40;;;;;;5099583;28;20059;-73
2022/03/06 03:53:52;;;;;;;12.00;6.20;;;1.30;70.50;;;;;;5099248;27;20991;-74
2022/03/06 03:56:21;;;;;;;10.40;6.40;;;1.30;70.70;;;;;;5071010;28;20445;-73
2022/03/06 03:58:46;;;;;;;11.00;6.45;;;1.30;70.90;;;;;;5057576;28;20036;-73
2022/03/06 04:01:12;;;;;;;10.00;6.27;;;1.30;70.90;;;;;;5091979;28;20041;-73
2022/03/06 04:03:38;;;;;;;10.93;6.33;;;1.30;70.90;;;;;;5073283;28;20478;-73
2022/03/06 04:06:04;;;;;;;8.95;6.30;;;1.40;70.60;;;;;;5098197;28;20054;-73
2022/03/06 04:08:30;;;;;;;10.33;6.17;;;1.40;70.70;;;;;;5092289;28;20043;-73
2022/03/06 04:10:59;;;;;;;13.23;7.53;;;1.40;70.90;;;;;;5079550;28;20047;-73
2022/03/06 04:13:25;;;;;;;10.55;6.30;;;1.30;71.00;;;;;;5108202;28;20644;-73
2022/03/06 04:15:51;;;;;;;10.95;7.03;;;1.30;71.10;;;;;;5068759;28;20088;-73
2022/03/06 04:18:17;;;;;;;10.33;6.43;;;1.30;71.30;;;;;;5077509;28;20047;-73
2022/03/06 04:20:43;;;;;;;10.98;6.25;;;1.30;71.40;;;;;;5069986;28;20689;-73
2022/03/06 04:23:09;;;;;;;10.13;6.53;;;1.30;71.40;;;;;;5098228;28;20491;-73
2022/03/06 04:25:35;;;;;;;13.07;6.40;;;1.40;71.40;;;;;;5091204;28;20097;-73
2022/03/06 04:28:01;;;;;;;10.70;6.87;;;1.40;71.30;;;;;;5075942;27;20050;-73
2022/03/06 04:30:26;;;;;;;12.67;7.27;;;1.40;71.50;;;;;;5074240;28;20080;-73
2022/03/06 04:32:52;;;;;;;9.57;6.67;;;1.40;71.40;;;;;;5090967;28;20293;-73
2022/03/06 04:35:18;;;;;;;11.10;6.95;;;1.40;71.50;;;;;;5075708;28;20491;-73
2022/03/06 04:37:44;;;;;;;10.03;6.80;;;1.40;71.60;;;;;;5091158;28;20039;-73
2022/03/06 04:40:10;;;;;;;10.57;6.72;;;1.50;71.60;;;;;;5078658;27;20085;-73
2022/03/06 04:42:36;;;;;;;12.23;7.25;;;1.40;71.60;;;;;;5058273;28;20051;-73
2022/03/06 04:45:02;;;;;;;12.83;7.40;;;1.40;71.80;;;;;;5074461;28;20368;-73
2022/03/06 04:47:28;;;;;;;13.38;7.53;;;1.40;71.80;;;;;;5057115;27;20031;-73
2022/03/06 04:49:54;;;;;;;11.10;7.30;;;1.50;72.10;;;;;;5062352;28;20757;-73
2022/03/06 04:52:20;;;;;;;13.50;7.40;;;1.50;72.00;;;;;;5088607;27;20955;-73
2022/03/06 04:54:45;;;;;;;11.77;7.03;;;1.60;71.80;;;;;;5072914;28;20240;-73
2022/03/06 04:57:11;;;;;;;11.90;7.03;;;1.60;71.60;;;;;;5097918;28;20126;-73
2022/03/06 04:59:37;;;;;;;9.07;6.77;;;1.70;71.40;;;;;;5062032;28;20450;-73
2022/03/06 05:02:03;;;;;;;15.33;7.43;;;1.60;71.60;;;;;;5090257;28;20621;-73
2022/03/06 05:04:29;;;;;;;12.63;7.10;;;1.60;71.50;;;;;;5092714;28;20058;-73
2022/03/06 05:06:55;;;;;;;10.60;7.07;;;1.70;71.40;;;;;;5090009;28;20047;-73
2022/03/06 05:09:21;;;;;;;9.47;6.67;;;1.60;71.40;;;;;;5055439;28;20495;-73
2022/03/06 05:11:47;;;;;;;13.03;7.03;;;1.60;71.30;;;;;;5098875;28;20031;-73
2022/03/06 05:14:12;;;;;;;10.33;6.90;;;1.70;71.40;;;;;;5075265;28;20039;-73
2022/03/06 05:16:38;;;;;;;10.17;6.27;;;1.60;71.10;;;;;;5092242;28;20293;-74
2022/03/06 05:19:04;;;;;;;11.90;6.37;;;1.60;71.10;;;;;;5084537;28;20453;-73
2022/03/06 05:21:29;;;;;;;9.73;6.60;;;1.60;71.00;;;;;;5107577;27;20050;-73
2022/03/06 05:23:55;;;;;;;9.20;6.27;;;1.60;71.10;;;;;;5108161;27;20047;-73
2022/03/06 05:26:21;;;;;;;11.10;5.63;;;1.50;71.30;;;;;;5123541;27;20046;-73
2022/03/06 05:28:47;;;;;;;11.80;6.17;;;1.60;71.00;;;;;;5093691;28;20043;-73
2022/03/06 05:31:12;;;;;;;11.03;5.93;;;1.70;70.60;;;;;;5107106;28;20040;-73
2022/03/06 05:33:38;;;;;;;9.83;6.17;;;1.70;70.40;;;;;;5073454;28;20042;-73
2022/03/06 05:36:04;;;;;;;8.53;5.70;;;1.60;70.40;;;;;;5106864;28;20046;-73
2022/03/06 05:38:30;;;;;;;8.95;5.50;;;1.60;70.50;;;;;;5107548;27;20069;-73
2022/03/06 05:40:56;;;;;;;9.17;5.67;;;1.60;70.60;;;;;;5123630;27;20604;-73
2022/03/06 05:43:21;;;;;;;9.37;5.67;;;1.60;70.40;;;;;;5073699;28;20075;-73
2022/03/06 05:45:51;;;;;;;9.27;5.90;;;1.50;70.50;;;;;;5077654;28;20039;-73
2022/03/06 05:48:18;;;;;;;8.25;5.53;;;1.50;70.50;;;;;;5062341;28;20051;-73
2022/03/06 05:50:44;;;;;;;6.88;5.22;;;1.50;70.50;;;;;;5077866;28;20132;-73
2022/03/06 05:53:10;;;;;;;8.77;5.03;;;1.50;70.40;;;;;;5092533;28;20060;-73
2022/03/06 05:55:36;;;;;;;8.13;5.13;;;1.50;70.60;;;;;;5071580;28;20032;-73
2022/03/06 05:58:02;;;;;;;9.02;4.97;;;1.50;70.70;;;;;;5087171;28;20588;-73
2022/03/06 06:00:28;;;;;;;9.67;5.40;;;1.50;70.20;;;;;;5121222;27;20085;-73
2022/03/06 06:02:55;;;;;;;8.07;4.82;;;1.60;70.10;;;;;;5070912;28;20342;-73
2022/03/06 06:05:22;;;;;;;10.40;5.20;;;1.60;70.20;;;;;;5093760;28;20044;-73
2022/03/06 06:07:51;;;;;;;7.43;4.47;;;1.50;70.20;;;;;;5088611;28;20056;-73
2022/03/06 06:10:18;;;;;;;7.45;4.40;;;1.50;70.30;;;;;;5096749;27;20039;-73
2022/03/06 06:12:44;;;;;;;5.20;3.95;;;1.50;70.10;;;;;;5109278;27;20043;-73
2022/03/06 06:15:10;;;;;;;7.73;3.70;;;1.50;70.10;;;;;;5089929;28;20431;-73
2022/03/06 06:17:37;;;;;;;7.55;3.50;;;1.50;70.10;;;;;;5094389;27;20293;-73
2022/03/06 06:20:05;;;;;;;6.55;2.83;;;1.50;69.60;;;;;;5084957;28;20496;-73
2022/03/06 06:22:31;;;;;;;5.50;2.92;;;1.60;68.20;;;;;;5089428;28;20614;-73
2022/03/06 06:24:58;;;;;;;3.80;2.28;;;1.60;67.60;;;;;;5098987;28;20139;-73
2022/03/06 06:27:25;;;;;;;5.85;2.95;;;1.60;67.00;;;;;;5089173;28;20047;-73
2022/03/06 06:29:50;;;;;;;3.22;2.30;;;1.60;66.80;;;;;;5054985;28;20157;-73
2022/03/06 06:32:16;;;;;;;4.23;2.27;;;1.60;66.00;;;;;;5075117;28;20324;-73
2022/03/06 06:34:42;;;;;;;5.07;2.20;;;1.70;65.50;;;;;;5108797;27;20532;-73
2022/03/06 06:37:08;;;;;;;4.05;2.45;;;1.70;65.50;;;;;;5079606;28;20031;-73
2022/03/06 06:39:34;;;;;;;4.47;2.20;;;1.70;65.40;;;;;;5088943;28;20431;-73
2022/03/06 06:42:01;;;;;;;4.43;2.20;;;1.70;65.00;;;;;;5090636;28;20039;-73
2022/03/06 06:44:27;;;;;;;2.60;1.95;;;1.70;64.70;;;;;;5073860;28;20039;-73
2022/03/06 06:46:52;;;;;;;6.17;2.13;;;1.70;64.50;;;;;;5122141;27;20399;-73
2022/03/06 06:49:18;;;;;;;3.80;1.83;;;1.70;65.00;;;;;;5080616;28;20922;-73
2022/03/06 06:51:44;;;;;;;7.20;1.97;;;1.80;64.00;;;;;;5105719;28;20115;-73
2022/03/06 06:54:10;;;;;;;3.37;1.70;;;1.80;63.70;;;;;;5075133;28;20046;-73
2022/03/06 06:56:36;;;;;;;4.13;1.77;;;1.80;63.70;;;;;;5087457;28;20115;-73
2022/03/06 06:59:02;;;;;;;2.30;1.60;;;1.80;63.50;;;;;;5083972;28;20047;-73
2022/03/06 07:01:27;;;;;;;8.53;1.73;;;1.80;63.30;;;;;;5121945;27;20081;-73
2022/03/06 07:03:53;;;;;;;8.13;1.73;;;1.80;63.30;;;;;;5119961;27;20385;-73
2022/03/06 07:06:19;;;;;;;2.47;1.37;;;1.90;63.10;;;;;;5104515;28;20039;-73
2022/03/06 07:08:45;;;;;;;4.70;1.83;;;1.90;63.00;;;;;;5103489;28;20546;-73
2022/03/06 07:11:10;;;;;;;4.13;1.60;;;1.90;63.10;;;;;;5119573;27;20036;-73
2022/03/06 07:13:36;;;;;;;2.07;1.50;;;1.80;62.70;;;;;;5110151;28;20047;-73
2022/03/06 07:16:02;;;;;;;6.00;1.50;;;1.80;62.80;;;;;;5056538;28;20095;-73
2022/03/06 07:18:28;;;;;;;2.95;1.20;;;1.80;62.30;;;;;;5091717;28;20487;-73
2022/03/06 07:20:54;;;;;;;6.07;1.93;;;1.80;61.50;;;;;;5072665;28;20217;-73
2022/03/06 07:23:19;;;;;;;2.27;1.20;;;1.70;61.50;;;;;;5105048;28;20047;-73
2022/03/06 07:25:46;;;;;;;3.90;1.10;;;1.70;61.40;;;;;;5090476;28;20099;-73
2022/03/06 07:28:12;;;;;;;3.88;1.50;;;1.60;60.80;;;;;;5105719;28;20501;-73
2022/03/06 07:30:38;;;;;;;3.13;1.60;;;1.60;60.80;;;;;;5105070;28;20031;-73
2022/03/06 07:33:04;;;;;;;2.57;1.43;;;1.50;61.50;;;;;;5076819;28;20043;-73
2022/03/06 07:35:30;;;;;;;3.53;1.50;;;1.50;61.40;;;;;;5080213;28;20446;-73
2022/03/06 07:37:56;;;;;;;4.57;1.30;;;1.50;61.60;;;;;;5122336;27;20040;-73
2022/03/06 07:40:23;;;;;;;3.23;1.67;;;1.60;61.70;;;;;;5103222;28;20442;-73
2022/03/06 07:42:49;;;;;;;5.35;1.17;;;1.60;62.10;;;;;;5104224;28;20058;-73
2022/03/06 07:45:16;;;;;;;2.63;1.30;;;1.60;61.70;;;;;;5072711;28;20035;-72
2022/03/06 07:47:42;;;;;;;3.22;1.20;;;1.80;60.80;;;;;;5104640;28;20063;-73
2022/03/06 07:50:10;;;;;;;4.97;1.42;;;1.80;61.10;;;;;;5071099;28;20052;-73
2022/03/06 07:52:36;;;;;;;3.53;1.30;;;1.90;61.20;;;;;;5103840;28;20052;-73
2022/03/06 07:55:03;;;;;;;7.93;1.65;;;1.90;61.10;;;;;;5090468;28;20115;-73
2022/03/06 07:57:28;;;;;;;2.65;1.02;;;2.00;60.70;;;;;;5106585;28;20031;-73
2022/03/06 07:59:54;;;;;;;4.23;1.20;;;2.10;60.00;;;;;;5079142;28;20502;-73
2022/03/06 08:02:20;;;;;;;3.47;1.40;;;2.20;59.20;;;;;;5081903;28;20403;-73
2022/03/06 08:04:46;;;;;;;2.73;1.30;;;2.30;58.90;;;;;;5094638;28;20546;-73
2022/03/06 08:07:11;;;;;;;5.53;1.67;;;2.30;59.50;;;;;;5071279;28;20043;-73
2022/03/06 08:09:37;;;;;;;3.93;1.50;;;2.30;59.30;;;;;;5074060;28;20036;-73
2022/03/06 08:12:03;;;;;;;2.80;1.30;;;2.40;59.80;;;;;;5072373;28;20496;-73
2022/03/06 08:14:29;;;;;;;3.55;1.20;;;2.40;59.80;;;;;;5094812;28;20039;-73
2022/03/06 08:16:55;;;;;;;4.32;1.98;;;2.50;58.80;;;;;;5105340;27;20047;-73
2022/03/06 08:19:21;;;;;;;4.30;1.67;;;2.50;58.80;;;;;;5120801;27;20443;-73
2022/03/06 08:21:48;;;;;;;3.43;1.30;;;2.60;58.80;;;;;;5087372;28;20035;-73
2022/03/06 08:24:15;;;;;;;4.25;1.48;;;2.60;59.20;;;;;;5080838;28;20869;-73
2022/03/06 08:26:41;;;;;;;5.10;1.42;;;2.60;59.10;;;;;;5124673;27;20078;-73
2022/03/06 08:29:07;;;;;;;2.70;1.17;;;2.70;57.90;;;;;;5074375;28;20372;-73
2022/03/06 08:31:32;;;;;;;3.57;1.20;;;2.80;57.80;;;;;;5108032;28;20790;-73
2022/03/06 08:33:58;;;;;;;2.87;1.40;;;2.90;57.50;;;;;;5108168;28;20630;-73
2022/03/06 08:36:24;;;;;;;3.70;1.37;;;2.90;57.30;;;;;;5080734;28;20158;-73
2022/03/06 08:38:50;;;;;;;3.33;1.50;;;3.00;57.00;;;;;;5096920;28;20502;-73
2022/03/06 08:41:16;;;;;;;2.70;1.33;;;3.00;56.90;;;;;;5095595;28;20040;-73
2022/03/06 08:43:42;;;;;;;2.47;1.30;;;3.10;56.60;;;;;;5077556;27;21984;-73
2022/03/06 08:46:08;;;;;;;4.53;1.67;;;3.10;56.70;;;;;;5073755;28;20119;-73
2022/03/06 08:48:36;;;;;;;5.05;1.52;;;3.20;56.30;;;;;;5090595;28;20047;-73
2022/03/06 08:51:04;;;;;;;3.60;1.50;;;3.20;57.10;;;;;;5104355;28;20113;-73
2022/03/06 08:53:31;;;;;;;3.17;1.70;;;3.30;57.10;;;;;;5100776;27;20539;-73
2022/03/06 08:55:57;;;;;;;4.10;1.45;;;3.40;56.80;;;;;;5083613;28;20463;-73
2022/03/06 08:58:22;;;;;;;4.83;1.63;;;3.50;56.20;;;;;;5070182;28;20198;-73
2022/03/06 09:00:48;;;;;;;4.47;1.90;;;3.60;56.10;;;;;;5056012;28;20747;-73
2022/03/06 09:03:14;;;;;;;4.77;1.53;;;3.70;55.70;;;;;;5067419;28;20050;-73
2022/03/06 09:05:40;;;;;;;3.37;1.73;;;3.70;55.40;;;;;;5070319;28;20044;-73
2022/03/06 09:08:10;;;;;;;2.67;1.20;;;3.80;55.60;;;;;;5067975;28;20036;-73
2022/03/06 09:10:37;;;;;;;3.33;1.38;;;3.80;55.20;;;;;;5086019;28;20040;-73
2022/03/06 09:13:04;;;;;;;3.85;1.77;;;3.90;55.50;;;;;;5066749;28;20040;-72
2022/03/06 09:15:30;;;;;;;4.65;2.00;;;4.00;54.20;;;;;;5084195;28;20036;-73
2022/03/06 09:17:56;;;;;;;2.53;1.48;;;4.00;54.50;;;;;;5068265;28;20078;-73
2022/03/06 09:20:22;;;;;;;2.97;1.70;;;4.00;54.30;;;;;;5084282;28;20139;-73
2022/03/06 09:22:48;;;;;;;4.28;1.80;;;4.00;54.60;;;;;;5117762;27;20118;-73
2022/03/06 09:25:14;;;;;;;4.47;1.70;;;4.10;54.10;;;;;;5102374;28;20080;-73
2022/03/06 09:27:40;;;;;;;4.72;1.58;;;4.10;54.60;;;;;;5064598;28;20094;-73
2022/03/06 09:30:08;;;;;;;5.27;1.67;;;4.20;53.60;;;;;;5068434;28;20064;-73
2022/03/06 09:32:34;;;;;;;3.72;1.80;;;4.20;53.50;;;;;;5085585;28;20043;-73
2022/03/06 09:34:59;;;;;;;3.90;1.97;;;4.20;53.60;;;;;;5100316;28;20089;-73
2022/03/06 09:37:25;;;;;;;4.00;1.67;;;4.20;54.30;;;;;;5065582;28;20314;-73
2022/03/06 09:39:51;;;;;;;4.10;1.57;;;4.30;54.00;;;;;;5053146;28;20739;-73
2022/03/06 09:42:21;;;;;;;5.67;2.53;;;4.30;53.30;;;;;;5069082;28;20051;-73
2022/03/06 09:44:49;;;;;;;4.63;2.10;;;4.40;53.50;;;;;;5100254;27;20401;-73
2022/03/06 09:47:15;;;;;;;6.18;1.95;;;4.40;54.00;;;;;;5081523;28;20182;-73
2022/03/06 09:49:46;;;;;;;5.30;1.77;;;4.50;53.90;;;;;;5098509;28;20043;-73
2022/03/06 09:52:12;;;;;;;5.03;2.03;;;4.50;53.40;;;;;;5077704;28;20515;-73
2022/03/06 09:54:39;;;;;;;3.25;1.90;;;4.50;53.30;;;;;;5102605;28;20066;-73
2022/03/06 09:57:05;;;;;;;5.32;2.20;;;4.50;53.40;;;;;;5093614;28;20513;-73
2022/03/06 09:59:31;;;;;;;3.47;1.60;;;4.60;53.60;;;;;;5082208;28;20109;-73
2022/03/06 10:02:05;;;;;;;3.77;1.57;;;4.60;53.80;;;;;;5069313;28;20479;-73
2022/03/06 10:04:35;;;;;;;3.72;2.00;;;4.60;53.40;;;;;;5068975;28;20637;-73
2022/03/06 10:07:06;;;;;;;4.97;2.05;;;4.60;53.70;;;;;;5102942;28;20399;-73
2022/03/06 10:09:56;;;;;;;3.85;1.95;;;4.70;54.40;;;;;;5057834;28;20542;-73
2022/03/06 10:12:24;;;;;;;5.07;1.65;;;4.80;54.20;;;;;;5081540;27;20036;-75
2022/03/06 10:14:52;;;;;;;4.82;1.95;;;4.90;52.50;;;;;;5122733;27;20042;-75
2022/03/06 10:17:24;;;;;;;3.55;1.88;;;4.90;52.80;;;;;;5109879;27;20655;-75
2022/03/06 10:19:56;;;;;;;6.28;1.88;;;4.90;53.50;;;;;;5121967;27;20047;-75
2022/03/06 10:22:36;;;;;;;4.53;2.03;;;5.10;52.60;;;;;;5105006;28;20044;-75
2022/03/06 10:25:16;;;;;;;4.13;1.85;;;5.10;52.90;;;;;;5069642;28;20657;-75
2022/03/06 10:27:54;;;;;;;3.75;1.77;;;5.10;53.50;;;;;;5117848;27;20054;-75
2022/03/06 10:30:46;;;;;;;3.08;2.03;;;5.20;52.80;;;;;;5118055;27;20079;-75
2022/03/06 10:33:22;;;;;;;3.10;1.45;;;5.20;53.10;;;;;;5059804;27;20231;-74
2022/03/06 10:35:50;;;;;;;5.75;2.15;;;5.30;52.70;;;;;;5087163;28;20392;-75
2022/03/06 10:38:23;;;;;;;2.85;1.77;;;5.30;52.90;;;;;;5074739;28;20073;-75
2022/03/06 10:40:50;;;;;;;3.70;1.90;;;5.30;53.40;;;;;;5115218;27;20043;-75
2022/03/06 10:43:22;;;;;;;3.78;1.90;;;5.40;52.90;;;;;;5125249;27;20051;-75
2022/03/06 10:45:49;;;;;;;3.70;1.67;;;5.50;52.90;;;;;;5075977;27;20043;-74
2022/03/06 10:48:15;;;;;;;5.53;2.45;;;5.50;52.90;;;;;;5087807;28;20043;-75
2022/03/06 10:50:41;;;;;;;3.70;1.60;;;5.60;52.50;;;;;;5068237;28;20119;-74
2022/03/06 10:53:24;;;;;;;4.25;2.10;;;5.50;52.90;;;;;;5120360;27;20596;-75
2022/03/06 10:55:51;;;;;;;6.85;2.15;;;5.50;53.20;;;;;;5089220;28;20102;-74
2022/03/06 10:58:18;;;;;;;3.92;2.30;;;5.60;53.50;;;;;;5094287;27;20044;-74
2022/03/06 11:00:46;;;;;;;4.60;2.00;;;5.70;53.40;;;;;;5093715;28;20051;-74
2022/03/06 11:03:14;;;;;;;4.65;1.95;;;5.80;53.40;;;;;;5103409;28;20067;-74
2022/03/06 11:05:42;;;;;;;3.10;1.83;;;5.80;53.50;;;;;;5067435;28;20104;-74
2022/03/06 11:08:12;;;;;;;4.40;2.00;;;6.00;53.00;;;;;;5085545;28;20522;-74
2022/03/06 11:10:41;;;;;;;4.43;2.40;;;6.00;53.20;;;;;;5103485;28;20078;-74
2022/03/06 11:13:07;;;;;;;3.25;1.95;;;6.00;53.00;;;;;;5091752;28;20037;-74
2022/03/06 11:15:33;;;;;;;6.82;2.33;;;6.10;53.20;;;;;;5087004;28;20042;-74
2022/03/06 11:18:01;;;;;;;3.50;1.90;;;6.20;52.80;;;;;;5105464;28;20028;-74
2022/03/06 11:20:29;;;;;;;4.45;1.98;;;6.30;52.70;;;;;;5104256;28;20089;-74
2022/03/06 11:23:15;;;;;;;3.85;1.75;;;6.40;52.60;;;;;;5095059;28;20122;-74
2022/03/06 11:26:09;;;;;;;3.60;1.90;;;6.50;53.40;;;;;;5115401;27;20096;-75
2022/03/06 11:29:09;;;;;;;6.20;1.90;;;6.70;52.70;;;;;;5086819;28;20077;-75
2022/03/06 11:31:46;;;;;;;4.13;2.00;;;6.90;52.00;;;;;;5095289;28;20472;-75
2022/03/06 11:34:20;;;;;;;5.97;1.90;;;7.10;51.80;;;;;;5103967;28;20279;-75
2022/03/06 11:36:48;;;;;;;5.43;2.28;;;7.30;52.10;;;;;;5088680;28;20043;-75
2022/03/06 11:39:34;;;;;;;5.40;1.88;;;7.40;51.80;;;;;;5088314;28;20040;-76
2022/03/06 11:42:02;;;;;;;4.80;1.92;;;7.50;50.40;;;;;;5056434;28;20044;-75
2022/03/06 11:44:32;;;;;;;5.05;2.65;;;7.50;51.20;;;;;;5082389;28;20085;-75
2022/03/06 11:46:58;;;;;;;4.75;2.28;;;7.50;51.40;;;;;;5111424;28;20392;-74
2022/03/06 11:49:33;;;;;;;5.17;1.73;;;7.70;51.00;;;;;;5070348;28;20193;-74
2022/03/06 11:51:59;;;;;;;3.47;1.60;;;7.70;50.40;;;;;;5108727;28;20046;-74
2022/03/06 11:54:41;;;;;;;3.47;1.98;;;7.70;50.90;;;;;;5092828;28;20378;-74
2022/03/06 11:57:07;;;;;;;6.88;2.28;;;7.80;50.20;;;;;;5079121;28;20040;-74
2022/03/06 11:59:35;;;;;;;4.47;1.90;;;7.70;50.70;;;;;;5111664;28;20864;-74
2022/03/06 12:02:14;;;;;;;4.43;1.80;;;7.60;50.20;;;;;;5112246;28;20040;-74
2022/03/06 12:04:46;;;;;;;5.07;1.95;;;7.60;50.20;;;;;;5076032;28;20051;-75
2022/03/06 12:07:14;;;;;;;5.93;1.83;;;7.60;50.20;;;;;;5079522;28;20047;-74
2022/03/06 12:09:42;;;;;;;3.90;1.70;;;7.50;50.60;;;;;;5081868;28;20089;-74
2022/03/06 12:12:19;;;;;;;5.28;1.55;;;7.50;50.90;;;;;;5074378;28;20040;-74
2022/03/06 12:14:54;;;;;;;4.53;1.60;;;7.50;50.60;;;;;;5057734;28;20114;-74
2022/03/06 12:17:29;;;;;;;4.05;1.63;;;7.50;51.30;;;;;;5094328;28;20032;-74
2022/03/06 12:19:55;;;;;;;3.03;1.63;;;7.60;50.70;;;;;;5081654;28;20036;-74
2022/03/06 12:22:33;;;;;;;3.30;1.60;;;7.60;51.60;;;;;;5115301;27;20113;-75
2022/03/06 12:25:10;;;;;;;5.97;1.95;;;7.70;51.60;;;;;;5090507;28;20104;-74
2022/03/06 12:27:39;;;;;;;5.50;2.15;;;7.80;52.00;;;;;;5096552;28;20044;-74
2022/03/06 12:30:12;;;;;;;3.55;1.90;;;7.80;51.60;;;;;;5077871;28;20448;-74
2022/03/06 12:32:40;;;;;;;3.83;2.28;;;7.90;51.00;;;;;;5104690;28;20043;-74
2022/03/06 12:35:17;;;;;;;2.65;1.55;;;7.80;50.80;;;;;;5093420;28;20037;-74
2022/03/06 12:37:44;;;;;;;4.25;1.70;;;7.80;50.40;;;;;;5108057;27;20035;-74
2022/03/06 12:40:19;;;;;;;7.05;1.92;;;7.60;50.90;;;;;;5096447;28;20048;-74
2022/03/06 12:42:46;;;;;;;4.13;1.80;;;7.70;50.90;;;;;;5095742;28;20051;-74
2022/03/06 12:45:15;;;;;;;5.22;2.38;;;7.80;50.10;;;;;;5095696;28;20032;-74
2022/03/06 12:47:42;;;;;;;5.35;1.80;;;7.80;50.20;;;;;;5095164;28;20047;-74
2022/03/06 12:50:11;;;;;;;4.32;1.70;;;7.80;50.90;;;;;;5087622;27;20052;-74
2022/03/06 12:52:37;;;;;;;4.22;1.83;;;7.90;50.70;;;;;;5131172;27;20131;-74